createdAt,value
2023-04-09T00:00:44.919Z,6.18
2023-04-09T00:03:12.664Z,6.15
2023-04-09T00:05:41.398Z,6.13
2023-04-09T00:08:08.366Z,6.05
2023-04-09T00:10:35.259Z,6.00
2023-04-09T00:13:02.230Z,5.98
2023-04-09T00:15:31.554Z,5.98
2023-04-09T00:17:59.468Z,5.97
2023-04-09T00:20:26.617Z,5.95
2023-04-09T00:22:54.252Z,5.90
2023-04-09T00:25:21.307Z,5.87
2023-04-09T00:27:48.214Z,5.81
2023-04-09T00:30:15.159Z,5.80
2023-04-09T00:32:42.405Z,5.75
2023-04-09T00:35:09.565Z,5.71
2023-04-09T00:37:36.444Z,5.67
2023-04-09T00:40:04.212Z,5.66
2023-04-09T00:42:35.007Z,5.65
2023-04-09T00:45:01.902Z,5.46
2023-04-09T00:47:29.731Z,5.48
2023-04-09T00:49:57.130Z,5.42
2023-04-09T00:52:24.852Z,5.41
2023-04-09T00:54:52.631Z,5.35
2023-04-09T00:57:19.966Z,5.38
2023-04-09T00:59:46.989Z,5.42
2023-04-09T01:02:13.966Z,5.46
2023-04-09T01:04:42.111Z,5.49
2023-04-09T01:07:46.211Z,5.48
2023-04-09T01:10:25.182Z,5.43
2023-04-09T01:13:09.273Z,5.39
2023-04-09T01:15:41.571Z,5.41
2023-04-09T01:18:12.639Z,5.40
2023-04-09T01:20:48.755Z,5.28
2023-04-09T01:23:41.213Z,5.25
2023-04-09T01:26:21.939Z,5.18
2023-04-09T01:28:54.942Z,5.23
2023-04-09T01:31:27.427Z,5.17
2023-04-09T01:33:55.009Z,5.22
2023-04-09T01:36:22.230Z,5.28
2023-04-09T01:38:49.391Z,5.27
2023-04-09T01:41:19.224Z,5.25
2023-04-09T01:43:46.283Z,5.24
2023-04-09T01:46:13.664Z,5.17
2023-04-09T01:48:40.832Z,5.21
2023-04-09T01:51:07.619Z,5.30
2023-04-09T01:53:34.654Z,5.37
2023-04-09T01:56:02.096Z,5.43
2023-04-09T01:58:29.051Z,5.47
2023-04-09T02:01:01.231Z,5.47
2023-04-09T02:03:40.598Z,5.45
2023-04-09T02:06:32.805Z,5.41
2023-04-09T02:09:04.721Z,5.44
2023-04-09T02:11:34.147Z,5.37
2023-04-09T02:14:01.446Z,5.43
2023-04-09T02:16:28.711Z,5.41
2023-04-09T02:18:56.776Z,5.42
2023-04-09T02:21:24.213Z,5.48
2023-04-09T02:23:51.290Z,5.43
2023-04-09T02:26:18.491Z,5.50
2023-04-09T02:28:45.342Z,5.56
2023-04-09T02:31:12.211Z,5.59
2023-04-09T02:33:39.372Z,5.55
2023-04-09T02:36:06.802Z,5.53
2023-04-09T02:38:33.673Z,5.47
2023-04-09T02:41:00.666Z,5.53
2023-04-09T02:43:27.533Z,5.57
2023-04-09T02:45:54.616Z,5.56
2023-04-09T02:48:21.821Z,5.60
2023-04-09T02:50:48.654Z,5.68
2023-04-09T02:53:15.614Z,5.67
2023-04-09T02:55:42.503Z,5.41
2023-04-09T02:58:09.338Z,5.38
2023-04-09T03:00:36.286Z,5.49
2023-04-09T03:03:03.329Z,5.47
2023-04-09T03:05:30.249Z,5.41
2023-04-09T03:07:57.181Z,5.48
2023-04-09T03:10:24.099Z,5.45
2023-04-09T03:12:51.227Z,5.61
2023-04-09T03:15:35.477Z,5.60
2023-04-09T03:18:02.318Z,5.62
2023-04-09T03:20:29.454Z,5.61
2023-04-09T03:22:56.259Z,5.67
2023-04-09T03:25:30.271Z,5.61
2023-04-09T03:27:57.801Z,5.72
2023-04-09T03:30:38.395Z,5.60
2023-04-09T03:33:06.455Z,5.65
2023-04-09T03:35:38.734Z,5.61
2023-04-09T03:38:05.625Z,5.66
2023-04-09T03:40:33.722Z,5.63
2023-04-09T03:43:00.548Z,5.60
2023-04-09T03:45:29.547Z,5.51
2023-04-09T03:48:08.446Z,5.55
2023-04-09T03:50:43.099Z,5.65
2023-04-09T03:53:13.554Z,5.45
2023-04-09T03:55:41.484Z,5.50
2023-04-09T03:58:16.051Z,5.50
2023-04-09T04:00:43.665Z,5.36
2023-04-09T04:03:31.063Z,5.25
2023-04-09T04:06:12.548Z,5.24
2023-04-09T04:08:49.937Z,5.32
2023-04-09T04:11:19.371Z,5.33
2023-04-09T04:13:47.041Z,5.20
2023-04-09T04:16:13.902Z,5.25
2023-04-09T04:18:41.495Z,5.38
2023-04-09T04:21:16.015Z,5.32
2023-04-09T04:23:47.011Z,5.24
2023-04-09T04:26:18.745Z,5.25
2023-04-09T04:28:46.682Z,5.32
2023-04-09T04:31:24.123Z,5.44
2023-04-09T04:33:51.683Z,5.40
2023-04-09T04:36:18.914Z,5.37
2023-04-09T04:38:51.751Z,5.37
2023-04-09T04:41:26.782Z,5.45
2023-04-09T04:44:05.877Z,5.38
2023-04-09T04:46:32.722Z,5.34
2023-04-09T04:48:59.537Z,5.17
2023-04-09T04:51:27.985Z,5.17
2023-04-09T04:54:05.907Z,5.20
2023-04-09T04:56:33.021Z,5.16
2023-04-09T04:59:09.880Z,5.33
2023-04-09T05:01:56.436Z,5.32
2023-04-09T05:04:24.168Z,5.33
2023-04-09T05:06:51.295Z,5.35
2023-04-09T05:09:22.436Z,5.33
2023-04-09T05:12:01.918Z,5.42
2023-04-09T05:14:29.295Z,5.40
2023-04-09T05:16:56.469Z,5.35
2023-04-09T05:19:28.110Z,5.32
2023-04-09T05:22:00.196Z,5.38
2023-04-09T05:24:27.327Z,5.43
2023-04-09T05:26:54.904Z,5.42
2023-04-09T05:29:22.467Z,5.60
2023-04-09T05:31:49.422Z,5.63
2023-04-09T05:34:28.201Z,5.55
2023-04-09T05:36:56.780Z,5.51
2023-04-09T05:39:25.068Z,5.39
2023-04-09T05:41:52.806Z,5.37
2023-04-09T05:44:25.680Z,5.34
2023-04-09T05:46:59.209Z,5.21
2023-04-09T05:49:32.698Z,5.33
2023-04-09T05:52:01.838Z,5.26
2023-04-09T05:54:32.315Z,5.32
2023-04-09T05:57:01.961Z,5.16
2023-04-09T05:59:31.384Z,5.08
2023-04-09T06:01:58.543Z,5.20
2023-04-09T06:04:25.687Z,5.14
2023-04-09T06:06:52.607Z,5.18
2023-04-09T06:09:20.696Z,5.23
2023-04-09T06:11:47.520Z,5.39
2023-04-09T06:14:18.255Z,5.40
2023-04-09T06:16:45.086Z,5.38
2023-04-09T06:19:12.963Z,5.44
2023-04-09T06:21:40.992Z,5.48
2023-04-09T06:24:07.795Z,5.55
2023-04-09T06:26:34.645Z,5.63
2023-04-09T06:29:01.559Z,5.54
2023-04-09T06:31:28.470Z,5.33
2023-04-09T06:33:56.100Z,5.30
2023-04-09T06:36:23.274Z,5.36
2023-04-09T06:38:50.176Z,5.56
2023-04-09T06:41:17.215Z,5.71
2023-04-09T06:43:46.918Z,5.49
2023-04-09T06:46:18.953Z,5.48
2023-04-09T06:48:48.337Z,5.59
2023-04-09T06:51:15.305Z,5.67
2023-04-09T06:53:42.456Z,5.87
2023-04-09T06:56:09.540Z,5.84
2023-04-09T06:58:36.471Z,5.79
2023-04-09T07:01:03.349Z,5.91
2023-04-09T07:03:33.024Z,5.85
2023-04-09T07:05:59.918Z,5.94
2023-04-09T07:08:27.208Z,5.98
2023-04-09T07:10:54.073Z,5.94
2023-04-09T07:13:20.988Z,5.99
2023-04-09T07:15:47.826Z,6.00
2023-04-09T07:18:14.774Z,5.91
2023-04-09T07:20:41.601Z,5.87
2023-04-09T07:23:08.377Z,6.08
2023-04-09T07:25:35.197Z,6.08
2023-04-09T07:28:02.259Z,6.30
2023-04-09T07:30:29.215Z,6.28
2023-04-09T07:32:56.352Z,6.30
2023-04-09T07:35:23.201Z,6.30
2023-04-09T07:37:50.081Z,6.00
2023-04-09T07:40:17.114Z,6.06
2023-04-09T07:42:44.160Z,6.20
2023-04-09T07:45:11.265Z,6.16
2023-04-09T07:47:40.917Z,6.23
2023-04-09T07:50:08.646Z,6.40
2023-04-09T07:52:35.877Z,6.41
2023-04-09T07:55:02.639Z,6.50
2023-04-09T07:57:32.532Z,6.42
2023-04-09T07:59:59.642Z,6.30
2023-04-09T08:02:27.346Z,6.44
2023-04-09T08:04:54.458Z,6.39
2023-04-09T08:07:21.674Z,6.41
2023-04-09T08:09:48.708Z,6.36
2023-04-09T08:12:15.924Z,6.34
2023-04-09T08:14:44.216Z,6.29
2023-04-09T08:17:11.158Z,6.08
2023-04-09T08:19:40.468Z,6.18
2023-04-09T08:22:08.566Z,6.13
2023-04-09T08:24:35.845Z,6.27
2023-04-09T08:27:02.814Z,6.26
2023-04-09T08:29:29.727Z,6.34
2023-04-09T08:31:56.666Z,6.27
2023-04-09T08:34:23.544Z,6.28
2023-04-09T08:36:50.684Z,6.39
2023-04-09T08:39:20.402Z,6.43
2023-04-09T08:41:50.641Z,6.38
2023-04-09T08:44:17.940Z,6.34
2023-04-09T08:46:45.117Z,6.42
2023-04-09T08:49:13.156Z,6.30
2023-04-09T08:51:40.623Z,6.39
2023-04-09T08:54:07.687Z,6.55
2023-04-09T08:56:34.556Z,6.61
2023-04-09T08:59:01.440Z,6.71
2023-04-09T09:01:29.802Z,6.55
2023-04-09T09:04:01.873Z,6.72
2023-04-09T09:06:33.573Z,6.68
2023-04-09T09:09:10.895Z,6.84
2023-04-09T09:11:42.140Z,6.84
2023-04-09T09:14:11.108Z,6.72
2023-04-09T09:16:43.985Z,6.74
2023-04-09T09:19:28.986Z,6.49
2023-04-09T09:22:00.012Z,6.54
2023-04-09T09:24:26.879Z,6.72
2023-04-09T09:26:57.710Z,6.72
2023-04-09T09:29:24.780Z,6.77
2023-04-09T09:31:53.372Z,6.86
2023-04-09T09:34:21.802Z,6.90
2023-04-09T09:37:06.799Z,7.09
2023-04-09T09:39:46.967Z,7.23
2023-04-09T09:42:13.855Z,7.20
2023-04-09T09:44:44.782Z,7.29
2023-04-09T09:47:13.543Z,7.23
2023-04-09T09:49:41.043Z,7.30
2023-04-09T09:52:10.746Z,7.37
2023-04-09T09:54:44.669Z,7.21
2023-04-09T09:57:13.889Z,7.33
2023-04-09T09:59:44.276Z,7.34
2023-04-09T10:02:21.142Z,7.33
2023-04-09T10:04:49.913Z,7.28
2023-04-09T10:07:17.339Z,7.40
2023-04-09T10:09:49.725Z,7.43
2023-04-09T10:12:17.290Z,7.33
2023-04-09T10:14:45.528Z,7.50
2023-04-09T10:17:12.495Z,7.59
2023-04-09T10:19:43.390Z,7.57
2023-04-09T10:22:12.837Z,7.54
2023-04-09T10:24:41.269Z,7.34
2023-04-09T10:27:15.713Z,7.54
2023-04-09T10:29:48.341Z,7.40
2023-04-09T10:32:25.308Z,7.37
2023-04-09T10:34:54.948Z,7.30
2023-04-09T10:37:23.771Z,7.54
2023-04-09T10:39:51.841Z,7.57
2023-04-09T10:42:27.664Z,7.69
2023-04-09T10:45:09.361Z,7.77
2023-04-09T10:47:38.861Z,7.78
2023-04-09T10:50:15.052Z,7.77
2023-04-09T10:52:42.735Z,7.93
2023-04-09T10:55:09.720Z,7.91
2023-04-09T10:57:37.768Z,8.00
2023-04-09T11:00:05.141Z,7.95
2023-04-09T11:02:36.404Z,7.82
2023-04-09T11:05:20.248Z,7.70
2023-04-09T11:07:56.915Z,7.80
2023-04-09T11:10:23.823Z,7.79
2023-04-09T11:12:51.025Z,7.88
2023-04-09T11:15:19.866Z,7.89
2023-04-09T11:17:50.097Z,7.72
2023-04-09T11:20:20.935Z,7.89
2023-04-09T11:22:50.321Z,7.95
2023-04-09T11:25:28.432Z,8.01
2023-04-09T11:27:55.837Z,8.22
2023-04-09T11:30:23.074Z,8.29
2023-04-09T11:32:50.763Z,8.39
2023-04-09T11:35:19.470Z,8.17
2023-04-09T11:37:47.221Z,8.23
2023-04-09T11:40:21.398Z,8.43
2023-04-09T11:42:53.333Z,8.41
2023-04-09T11:45:23.269Z,8.40
2023-04-09T11:47:50.689Z,8.67
2023-04-09T11:50:18.082Z,8.88
2023-04-09T11:52:46.151Z,8.90
2023-04-09T11:55:13.815Z,8.99
2023-04-09T11:57:46.311Z,9.01
2023-04-09T12:00:17.042Z,8.92
2023-04-09T12:02:50.372Z,9.14
2023-04-09T12:05:25.464Z,9.34
2023-04-09T12:10:27.526Z,9.46
2023-04-09T12:12:54.375Z,9.63
2023-04-09T12:15:25.566Z,9.66
2023-04-09T12:17:55.284Z,9.97
2023-04-09T12:20:42.516Z,10.15
2023-04-09T12:23:10.148Z,10.09
2023-04-09T12:25:41.600Z,10.14
2023-04-09T12:28:10.899Z,10.24
2023-04-09T12:30:37.729Z,10.35
2023-04-09T12:33:05.054Z,10.38
2023-04-09T12:35:32.228Z,10.32
2023-04-09T12:38:02.030Z,9.97
2023-04-09T12:40:28.859Z,10.13
2023-04-09T12:42:55.661Z,10.40
2023-04-09T12:45:22.700Z,10.29
2023-04-09T12:47:50.023Z,10.19
2023-04-09T12:50:16.893Z,10.44
2023-04-09T12:52:44.438Z,10.42
2023-04-09T12:55:12.250Z,10.40
2023-04-09T12:57:56.466Z,10.54
2023-04-09T13:00:41.016Z,10.60
2023-04-09T13:03:27.401Z,10.62
2023-04-09T13:06:23.246Z,10.75
2023-04-09T13:08:49.968Z,10.95
2023-04-09T13:11:16.773Z,11.04
2023-04-09T13:13:43.512Z,11.06
2023-04-09T13:16:10.290Z,11.08
2023-04-09T13:18:37.609Z,11.12
2023-04-09T13:21:04.334Z,11.30
2023-04-09T13:23:31.064Z,11.23
2023-04-09T13:25:58.858Z,11.20
2023-04-09T13:28:26.226Z,11.31
2023-04-09T13:30:53.345Z,12.17
2023-04-09T13:33:20.126Z,12.29
2023-04-09T13:35:47.086Z,11.92
2023-04-09T13:38:14.010Z,12.11
2023-04-09T13:40:41.401Z,12.27
2023-04-09T13:59:11.151Z,13.04
2023-04-09T14:01:38.290Z,13.01
2023-04-09T14:04:05.300Z,13.09
2023-04-09T14:06:32.259Z,13.21
2023-04-09T14:08:59.334Z,13.29
2023-04-09T14:11:29.137Z,13.20
2023-04-09T14:13:56.146Z,13.35
2023-04-09T14:16:23.899Z,13.35
2023-04-09T14:18:51.374Z,13.46
2023-04-09T14:21:18.964Z,13.71
2023-04-09T14:23:46.137Z,13.57
2023-04-09T14:26:13.233Z,13.60
2023-04-09T14:32:12.767Z,13.52
2023-04-09T14:34:39.895Z,13.37
2023-04-09T14:37:09.223Z,13.68
2023-04-09T14:39:36.095Z,13.77
2023-04-09T14:42:02.887Z,13.84
2023-04-09T14:44:29.657Z,14.27
2023-04-09T14:46:57.090Z,14.48
2023-04-09T14:49:24.172Z,14.80
2023-04-09T14:51:51.092Z,14.98
2023-04-09T14:54:17.941Z,15.23
2023-04-09T14:56:44.608Z,14.95
2023-04-09T14:59:28.211Z,15.24
2023-04-09T15:01:58.128Z,15.64
2023-04-09T15:04:25.031Z,15.31
2023-04-09T15:06:52.331Z,15.27
2023-04-09T15:09:19.121Z,15.54
2023-04-09T15:11:49.617Z,15.87
2023-04-09T15:15:04.928Z,15.86
2023-04-09T15:17:08.094Z,15.67
2023-04-09T15:19:34.893Z,15.56
2023-04-09T15:22:22.458Z,16.13
2023-04-09T15:25:25.774Z,16.32
2023-04-09T15:28:13.289Z,16.16
2023-04-09T15:30:56.486Z,16.41
2023-04-09T15:33:53.121Z,16.44
2023-04-09T15:36:26.162Z,16.70
2023-04-09T15:38:55.546Z,16.85
2023-04-09T15:41:49.555Z,17.06
2023-04-09T16:02:58.257Z,17.59
2023-04-09T16:05:34.319Z,17.62
2023-04-09T16:08:08.074Z,17.98
2023-04-09T16:15:18.452Z,18.25
2023-04-09T16:17:45.445Z,18.38
2023-04-09T16:20:12.788Z,18.46
2023-04-09T16:22:47.382Z,18.56
2023-04-09T16:25:19.344Z,18.32
2023-04-09T16:27:51.723Z,18.20
2023-04-09T16:37:16.063Z,17.85
2023-04-09T16:39:47.236Z,18.02
2023-04-09T16:46:00.345Z,17.56
2023-04-09T16:48:40.881Z,16.81
2023-04-09T16:51:08.276Z,16.91
2023-04-09T16:53:43.374Z,16.85
2023-04-09T16:56:25.590Z,16.77
2023-04-09T16:58:54.838Z,16.71
2023-04-09T17:01:22.015Z,16.63
2023-04-09T17:03:49.735Z,16.41
2023-04-09T17:06:19.592Z,15.98
2023-04-09T17:08:46.652Z,15.83
2023-04-09T17:11:17.306Z,15.42
2023-04-09T17:13:44.322Z,15.34
2023-04-09T17:16:12.078Z,15.07
2023-04-09T17:18:39.277Z,14.51
2023-04-09T17:21:06.532Z,14.01
2023-04-09T17:23:33.893Z,13.61
2023-04-09T17:26:23.603Z,13.26
2023-04-09T17:28:53.718Z,12.89
2023-04-09T17:31:24.400Z,12.69
2023-04-09T17:33:51.951Z,12.39
2023-04-09T17:36:19.976Z,12.25
2023-04-09T17:38:49.244Z,12.14
2023-04-09T17:44:47.946Z,11.63
2023-04-09T17:47:19.227Z,11.47
2023-04-09T17:50:19.190Z,11.40
2023-04-09T17:53:59.559Z,11.26
2023-04-09T17:56:31.511Z,11.05
2023-04-09T17:59:07.632Z,11.00
2023-04-09T18:01:35.101Z,10.90
2023-04-09T18:04:04.834Z,10.93
2023-04-09T18:06:32.359Z,10.84
2023-04-09T18:09:10.988Z,10.78
2023-04-09T18:11:50.858Z,10.72
2023-04-09T18:14:20.432Z,10.68
2023-04-09T18:29:03.485Z,10.31
2023-04-09T18:31:30.583Z,10.29
2023-04-09T18:33:57.436Z,10.28
2023-04-09T18:36:28.468Z,10.25
2023-04-09T18:38:56.237Z,9.99
2023-04-09T18:41:24.336Z,9.96
2023-04-09T18:43:51.272Z,9.88
2023-04-09T18:46:18.516Z,9.85
2023-04-09T18:48:47.247Z,9.87
2023-04-09T18:51:14.764Z,9.84
2023-04-09T18:53:42.336Z,9.89
2023-04-09T18:56:11.757Z,9.84
2023-04-09T18:58:39.064Z,9.82
2023-04-09T19:01:12.043Z,9.77
2023-04-09T19:03:39.765Z,9.76
2023-04-09T19:06:13.511Z,9.70
2023-04-09T19:08:41.282Z,9.65
2023-04-09T19:18:53.654Z,9.46
2023-04-09T19:21:30.160Z,9.40
2023-04-09T19:24:02.117Z,9.40
2023-04-09T19:27:11.881Z,9.26
2023-04-09T19:36:46.831Z,9.16
2023-04-09T19:39:51.734Z,9.16
2023-04-09T19:46:28.793Z,9.02
2023-04-09T19:49:50.050Z,9.00
2023-04-09T20:00:24.529Z,8.77
2023-04-09T20:03:27.398Z,8.75
2023-04-09T20:07:00.592Z,8.44
2023-04-09T20:14:26.507Z,8.20
2023-04-09T20:17:13.649Z,8.24
2023-04-09T20:19:56.417Z,8.22
2023-04-09T20:27:18.384Z,8.04
2023-04-09T20:30:42.045Z,8.14
2023-04-09T20:34:48.236Z,8.15
2023-04-09T20:41:39.473Z,8.09
2023-04-09T20:52:18.744Z,7.95
2023-04-09T20:55:29.583Z,8.00
2023-04-09T21:08:05.593Z,7.89
2023-04-09T21:23:11.721Z,7.48
2023-04-09T21:36:47.421Z,7.35
2023-04-09T21:49:10.488Z,7.33
2023-04-09T22:14:26.699Z,7.05
